createdAt,value
2023-01-29T00:34:05.788Z,86.5
2023-01-29T01:08:05.778Z,86.5
2023-01-29T01:09:05.884Z,86.4
2023-01-29T01:10:05.769Z,86.3
2023-01-29T01:11:05.801Z,86
2023-01-29T01:12:05.771Z,85.8
2023-01-29T01:13:05.786Z,85.7
2023-01-29T01:14:05.785Z,85.9
2023-01-29T01:15:05.820Z,85.9
2023-01-29T01:16:05.810Z,85.9
2023-01-29T01:17:05.788Z,86.4
2023-01-29T01:18:05.781Z,86.4
2023-01-29T01:19:05.779Z,86.6
2023-01-29T01:20:05.769Z,86.1
2023-01-29T01:21:05.778Z,86.3
2023-01-29T01:22:05.792Z,86.8
2023-01-29T01:23:05.803Z,86.7
2023-01-29T01:24:05.838Z,86.9
2023-01-29T01:26:05.795Z,86.8
2023-01-29T01:27:05.791Z,87
2023-01-29T01:28:05.798Z,87.2
2023-01-29T01:29:05.792Z,87
2023-01-29T01:30:05.794Z,86.9
2023-01-29T01:31:05.902Z,86.9
2023-01-29T01:32:05.790Z,86.3
2023-01-29T01:34:05.799Z,86.8
2023-01-29T01:35:05.803Z,86.6
2023-01-29T01:36:05.795Z,86.1
2023-01-29T01:37:05.840Z,85.8
2023-01-29T01:39:05.774Z,85.6
2023-01-29T01:41:05.784Z,86.5
2023-01-29T01:42:05.846Z,86.4
2023-01-29T01:43:05.801Z,86.2
2023-01-29T01:45:05.788Z,86.4
2023-01-29T01:47:05.772Z,85.9
2023-01-29T01:52:05.779Z,86.4
2023-01-29T01:54:05.776Z,86.7
2023-01-29T01:56:05.794Z,87.4
2023-01-29T01:57:05.809Z,87.6
2023-01-29T01:58:05.794Z,88
2023-01-29T01:59:05.802Z,88.2
2023-01-29T02:00:05.773Z,88.3
2023-01-29T02:01:05.880Z,88.4
2023-01-29T02:02:05.836Z,88.4
2023-01-29T02:03:05.796Z,87.9
2023-01-29T02:04:05.863Z,88
2023-01-29T02:05:05.779Z,88.1
2023-01-29T02:07:05.767Z,87.8
2023-01-29T02:08:05.786Z,87.9
2023-01-29T02:09:05.854Z,87.4
2023-01-29T02:10:05.804Z,87.6
2023-01-29T02:11:05.818Z,87.4
2023-01-29T02:12:05.787Z,86.8
2023-01-29T02:14:05.789Z,86.7
2023-01-29T02:15:05.774Z,87
2023-01-29T02:18:05.779Z,86.7
2023-01-29T02:19:05.778Z,86.8
2023-01-29T02:21:05.826Z,86.4
2023-01-29T02:22:05.789Z,85.8
2023-01-29T02:23:05.793Z,85.7
2023-01-29T02:24:05.935Z,86
2023-01-29T02:25:05.825Z,86.1
2023-01-29T02:27:05.801Z,86.5
2023-01-29T02:28:05.793Z,86.8
2023-01-29T02:31:05.925Z,86.4
2023-01-29T02:32:05.950Z,86.6
2023-01-29T02:33:05.802Z,86.4
2023-01-29T02:34:05.787Z,86.4
2023-01-29T02:35:05.791Z,86.4
2023-01-29T02:39:05.770Z,86.1
2023-01-29T02:40:05.785Z,86.3
2023-01-29T02:41:05.796Z,86.2
2023-01-29T02:42:05.825Z,86.2
2023-01-29T02:43:05.820Z,86.2
2023-01-29T02:46:05.884Z,86.2
2023-01-29T02:47:05.788Z,86.2
2023-01-29T02:49:05.795Z,86.3
2023-01-29T02:50:05.797Z,86.2
2023-01-29T02:52:05.962Z,86.1
2023-01-29T02:53:05.836Z,86.1
2023-01-29T02:55:05.794Z,87
2023-01-29T02:57:05.794Z,87.9
2023-01-29T02:58:05.840Z,88.1
2023-01-29T02:59:05.800Z,88.4
2023-01-29T03:01:05.857Z,88.5
2023-01-29T03:02:05.833Z,88.1
2023-01-29T03:04:05.828Z,88.3
2023-01-29T03:06:05.789Z,88.2
2023-01-29T03:08:05.835Z,88.2
2023-01-29T03:09:05.798Z,88.1
2023-01-29T03:10:05.797Z,88.3
2023-01-29T03:11:05.801Z,87.9
2023-01-29T03:12:05.794Z,87.9
2023-01-29T03:14:05.839Z,87.8
2023-01-29T03:15:05.793Z,88.1
2023-01-29T03:17:05.791Z,88
2023-01-29T03:21:05.772Z,87.4
2023-01-29T03:23:05.812Z,87.5
2023-01-29T03:24:05.812Z,87.8
2023-01-29T03:26:05.793Z,88
2023-01-29T03:27:05.782Z,87.8
2023-01-29T03:28:05.791Z,87.8
2023-01-29T03:29:05.796Z,87.8
2023-01-29T03:30:05.789Z,87.9
2023-01-29T03:31:05.830Z,87.3
2023-01-29T03:32:05.847Z,87.5
2023-01-29T03:33:05.799Z,87.6
2023-01-29T03:34:05.796Z,87.6
2023-01-29T03:35:05.848Z,87.4
2023-01-29T03:36:05.803Z,87.2
2023-01-29T03:37:05.804Z,87.1
2023-01-29T03:39:05.796Z,87.1
2023-01-29T03:40:05.796Z,87.2
2023-01-29T03:41:05.792Z,87.2
2023-01-29T03:42:05.797Z,87.1
2023-01-29T03:43:05.801Z,87.4
2023-01-29T03:45:05.788Z,88.2
2023-01-29T03:46:05.923Z,88.1
2023-01-29T03:47:05.799Z,88.1
2023-01-29T03:49:05.790Z,88.7
2023-01-29T03:51:05.793Z,89
2023-01-29T03:52:05.846Z,88.9
2023-01-29T03:54:05.803Z,89.4
2023-01-29T03:55:05.803Z,89.5
2023-01-29T03:56:05.798Z,89.5
2023-01-29T03:58:05.792Z,89.7
2023-01-29T03:59:05.797Z,89.5
2023-01-29T04:01:05.814Z,89.6
2023-01-29T04:03:05.806Z,89.6
2023-01-29T04:06:05.795Z,89.8
2023-01-29T04:07:05.810Z,89.8
2023-01-29T04:08:05.803Z,89.8
2023-01-29T04:10:05.795Z,89.8
2023-01-29T04:11:05.804Z,89.8
2023-01-29T04:12:05.800Z,90
2023-01-29T04:13:05.794Z,89.9
2023-01-29T04:14:05.797Z,90.1
2023-01-29T04:15:05.800Z,90.2
2023-01-29T04:16:05.832Z,90.2
2023-01-29T04:17:05.798Z,90.3
2023-01-29T04:18:05.815Z,90.3
2023-01-29T04:19:05.792Z,90.2
2023-01-29T04:20:05.813Z,90.3
2023-01-29T04:21:05.798Z,90.2
2023-01-29T04:22:05.803Z,90.4
2023-01-29T04:23:05.803Z,90.4
2023-01-29T04:25:05.801Z,90.3
2023-01-29T04:26:05.792Z,90.2
2023-01-29T04:27:05.810Z,90.2
2023-01-29T04:28:05.809Z,90.4
2023-01-29T04:30:05.819Z,90.4
2023-01-29T04:31:05.999Z,90.3
2023-01-29T04:32:05.794Z,90.4
2023-01-29T04:33:05.804Z,90.4
2023-01-29T04:34:05.820Z,90.3
2023-01-29T04:35:05.796Z,90.6
2023-01-29T04:36:05.793Z,90.6
2023-01-29T04:38:05.801Z,90.6
2023-01-29T04:39:05.795Z,90.8
2023-01-29T04:40:05.805Z,90.7
2023-01-29T04:41:05.816Z,91.1
2023-01-29T04:42:05.806Z,91.3
2023-01-29T04:43:05.802Z,91.5
2023-01-29T04:44:05.806Z,91.6
2023-01-29T04:45:05.802Z,91.5
2023-01-29T04:46:05.798Z,91.6
2023-01-29T04:47:05.809Z,91.5
2023-01-29T04:48:05.798Z,91.5
2023-01-29T04:49:05.810Z,91.6
2023-01-29T04:50:05.801Z,91.4
2023-01-29T04:51:05.798Z,91.3
2023-01-29T04:52:05.804Z,91.1
2023-01-29T04:53:05.806Z,91
2023-01-29T04:54:05.805Z,90.6
2023-01-29T04:56:05.809Z,90.7
2023-01-29T04:59:05.811Z,91
2023-01-29T05:00:05.801Z,90.9
2023-01-29T05:01:05.799Z,90.9
2023-01-29T05:03:05.895Z,90.7
2023-01-29T05:04:05.808Z,90.4
2023-01-29T05:05:05.795Z,90.2
2023-01-29T05:07:05.801Z,90
2023-01-29T05:08:05.848Z,90.3
2023-01-29T05:09:05.803Z,90
2023-01-29T05:10:05.796Z,89.8
2023-01-29T05:11:05.805Z,89.7
2023-01-29T05:12:05.802Z,89.6
2023-01-29T05:13:05.830Z,89.3
2023-01-29T05:14:05.805Z,89.1
2023-01-29T05:15:05.806Z,89
2023-01-29T05:18:05.806Z,88.8
2023-01-29T05:20:05.814Z,88.5
2023-01-29T05:21:05.804Z,88.3
2023-01-29T05:22:05.813Z,88.3
2023-01-29T05:24:05.869Z,88.1
2023-01-29T05:25:05.849Z,88
2023-01-29T05:28:05.809Z,88.1
2023-01-29T05:29:05.808Z,87.9
2023-01-29T05:30:05.803Z,88.1
2023-01-29T05:31:05.973Z,88.1
2023-01-29T05:33:05.803Z,88.1
2023-01-29T05:34:05.803Z,88.1
2023-01-29T05:35:05.805Z,88.2
2023-01-29T05:36:06.985Z,88.1
2023-01-29T05:38:05.801Z,88
2023-01-29T05:39:05.810Z,88
2023-01-29T05:40:05.808Z,88.3
2023-01-29T05:42:05.807Z,88.1
2023-01-29T05:43:05.819Z,88
2023-01-29T05:44:05.801Z,87.9
2023-01-29T05:45:05.855Z,87.9
2023-01-29T05:47:05.795Z,87.9
2023-01-29T05:48:05.818Z,88
2023-01-29T05:49:05.805Z,88.1
2023-01-29T05:50:05.808Z,88.1
2023-01-29T05:51:05.810Z,88.2
2023-01-29T05:52:05.891Z,88.2
2023-01-29T05:53:05.826Z,88.3
2023-01-29T05:54:05.819Z,88.1
2023-01-29T06:15:05.809Z,87.9
2023-01-29T07:55:05.822Z,85.6
2023-01-29T08:55:05.813Z,81.2
2023-01-29T10:50:05.838Z,76.4
2023-01-29T12:07:05.860Z,78.3
